createdAt,value
2024-01-15T00:00:18.233Z,0.00
2024-01-15T00:02:45.200Z,0.00
2024-01-15T00:05:11.898Z,-0.01
2024-01-15T00:07:38.594Z,0.01
2024-01-15T00:10:05.663Z,0.03
2024-01-15T00:12:32.432Z,0.00
2024-01-15T00:14:59.096Z,-0.01
2024-01-15T00:17:25.822Z,-0.02
2024-01-15T00:19:53.248Z,-0.04
2024-01-15T00:22:20.174Z,-0.03
2024-01-15T00:24:46.890Z,-0.04
2024-01-15T00:27:13.617Z,-0.04
2024-01-15T00:29:40.379Z,-0.07
2024-01-15T00:32:07.099Z,-0.06
2024-01-15T00:34:33.882Z,-0.07
2024-01-15T00:37:00.622Z,-0.08
2024-01-15T00:39:27.393Z,-0.09
2024-01-15T00:41:54.210Z,-0.10
2024-01-15T00:44:20.917Z,-0.13
2024-01-15T00:46:47.879Z,-0.13
2024-01-15T00:49:15.105Z,-0.14
2024-01-15T00:51:42.382Z,-0.15
2024-01-15T00:54:09.511Z,-0.18
2024-01-15T00:56:36.347Z,-0.14
2024-01-15T00:59:03.140Z,-0.13
2024-01-15T01:01:29.974Z,-0.18
2024-01-15T01:03:56.992Z,-0.21
2024-01-15T01:06:23.933Z,-0.18
2024-01-15T01:08:50.613Z,-0.21
2024-01-15T01:11:17.662Z,-0.22
2024-01-15T01:13:44.330Z,-0.26
2024-01-15T01:16:11.027Z,-0.26
2024-01-15T01:18:37.894Z,-0.30
2024-01-15T01:21:04.933Z,-0.32
2024-01-15T01:23:31.782Z,-0.34
2024-01-15T01:25:58.581Z,-0.29
2024-01-15T01:28:25.415Z,-0.32
2024-01-15T01:30:52.326Z,-0.34
2024-01-15T01:33:19.237Z,-0.34
2024-01-15T01:35:46.530Z,-0.35
2024-01-15T01:38:13.724Z,-0.37
2024-01-15T01:40:40.390Z,-0.42
2024-01-15T01:43:07.265Z,-0.42
2024-01-15T01:45:33.995Z,-0.41
2024-01-15T01:48:02.329Z,-0.40
2024-01-15T01:50:32.662Z,-0.36
2024-01-15T01:53:00.949Z,-0.40
2024-01-15T01:55:30.824Z,-0.40
2024-01-15T01:57:58.073Z,-0.44
2024-01-15T02:00:25.456Z,-0.39
2024-01-15T02:02:52.370Z,-0.44
2024-01-15T02:05:23.705Z,-0.45
2024-01-15T02:07:50.573Z,-0.45
2024-01-15T02:10:17.421Z,-0.43
2024-01-15T02:12:44.920Z,-0.45
2024-01-15T02:15:11.903Z,-0.42
2024-01-15T02:18:01.735Z,-0.38
2024-01-15T02:20:28.632Z,-0.40
2024-01-15T02:22:55.513Z,-0.37
2024-01-15T02:25:22.301Z,-0.37
2024-01-15T02:27:49.172Z,-0.40
2024-01-15T02:30:17.116Z,-0.41
2024-01-15T02:32:44.012Z,-0.39
2024-01-15T02:35:10.760Z,-0.41
2024-01-15T02:37:37.421Z,-0.45
2024-01-15T02:40:04.656Z,-0.47
2024-01-15T02:42:31.477Z,-0.48
2024-01-15T02:44:58.264Z,-0.49
2024-01-15T02:47:25.047Z,-0.53
2024-01-15T02:49:52.029Z,-0.52
2024-01-15T02:52:19.119Z,-0.50
2024-01-15T02:54:45.977Z,-0.53
2024-01-15T02:57:12.725Z,-0.53
2024-01-15T02:59:39.434Z,-0.55
2024-01-15T03:02:06.155Z,-0.52
2024-01-15T03:04:33.071Z,-0.54
2024-01-15T03:06:59.847Z,-0.55
2024-01-15T03:09:26.529Z,-0.58
2024-01-15T03:11:53.359Z,-0.59
2024-01-15T03:14:21.396Z,-0.58
2024-01-15T03:16:48.136Z,-0.56
2024-01-15T03:19:14.865Z,-0.56
2024-01-15T03:21:41.636Z,-0.59
2024-01-15T03:24:08.305Z,-0.58
2024-01-15T03:26:35.086Z,-0.58
2024-01-15T03:29:01.901Z,-0.60
2024-01-15T03:31:28.728Z,-0.60
2024-01-15T03:33:55.463Z,-0.57
2024-01-15T03:36:22.409Z,-0.58
2024-01-15T03:38:49.146Z,-0.59
2024-01-15T03:41:15.885Z,-0.60
2024-01-15T03:43:42.510Z,-0.65
2024-01-15T03:46:09.240Z,-0.68
2024-01-15T03:48:36.061Z,-0.69
2024-01-15T03:51:02.859Z,-0.69
2024-01-15T03:53:29.453Z,-0.69
2024-01-15T03:55:56.211Z,-0.66
2024-01-15T03:58:23.092Z,-0.71
2024-01-15T04:00:50.222Z,-0.72
2024-01-15T04:03:17.388Z,-0.73
2024-01-15T04:05:44.205Z,-0.74
2024-01-15T04:08:10.948Z,-0.77
2024-01-15T04:10:37.629Z,-0.82
2024-01-15T04:13:04.760Z,-0.84
2024-01-15T04:15:31.452Z,-0.83
2024-01-15T04:17:58.222Z,-0.88
2024-01-15T04:20:25.748Z,-0.91
2024-01-15T04:22:53.271Z,-0.93
2024-01-15T04:25:19.909Z,-0.93
2024-01-15T04:27:46.698Z,-0.97
2024-01-15T04:30:13.997Z,-0.97
2024-01-15T04:32:40.763Z,-0.97
2024-01-15T04:35:08.178Z,-1.00
2024-01-15T04:37:34.874Z,-0.96
2024-01-15T04:40:01.692Z,-0.97
2024-01-15T04:42:28.428Z,-0.94
2024-01-15T04:44:55.068Z,-0.93
2024-01-15T04:47:21.781Z,-0.94
2024-01-15T04:49:50.218Z,-0.95
2024-01-15T04:52:16.987Z,-1.00
2024-01-15T04:54:43.764Z,-1.00
2024-01-15T04:57:10.588Z,-1.03
2024-01-15T04:59:37.202Z,-1.09
2024-01-15T05:02:04.131Z,-1.06
2024-01-15T05:04:31.326Z,-1.11
2024-01-15T05:06:58.267Z,-1.19
2024-01-15T05:09:25.074Z,-1.22
2024-01-15T05:11:51.742Z,-1.23
2024-01-15T05:14:18.366Z,-1.25
2024-01-15T05:16:49.221Z,-1.22
2024-01-15T05:19:16.210Z,-1.19
2024-01-15T05:21:43.171Z,-1.22
2024-01-15T05:24:09.939Z,-1.20
2024-01-15T05:26:36.580Z,-1.19
2024-01-15T05:29:03.251Z,-1.12
2024-01-15T05:31:30.158Z,-1.08
2024-01-15T05:33:56.945Z,-1.03
2024-01-15T05:36:23.871Z,-1.06
2024-01-15T05:38:51.000Z,-1.08
2024-01-15T05:41:17.639Z,-1.10
2024-01-15T05:43:44.575Z,-1.15
2024-01-15T05:46:11.273Z,-1.18
2024-01-15T05:48:38.183Z,-1.12
2024-01-15T05:51:04.994Z,-1.03
2024-01-15T05:53:31.657Z,-0.99
2024-01-15T05:55:58.247Z,-0.98
2024-01-15T05:58:25.053Z,-0.98
2024-01-15T06:00:51.796Z,-0.95
2024-01-15T06:03:18.579Z,-0.92
2024-01-15T06:05:45.380Z,-0.92
2024-01-15T06:08:12.215Z,-0.95
2024-01-15T06:10:38.912Z,-0.98
2024-01-15T06:13:05.545Z,-1.03
2024-01-15T06:15:32.210Z,-1.01
2024-01-15T06:17:58.919Z,-1.00
2024-01-15T06:20:25.666Z,-0.99
2024-01-15T06:22:52.276Z,-1.01
2024-01-15T06:25:18.953Z,-1.00
2024-01-15T06:27:45.673Z,-1.01
2024-01-15T06:30:13.463Z,-1.01
2024-01-15T06:32:40.548Z,-0.99
2024-01-15T06:35:07.746Z,-0.97
2024-01-15T06:37:34.353Z,-0.98
2024-01-15T06:40:01.591Z,-0.95
2024-01-15T06:42:28.283Z,-0.98
2024-01-15T06:44:55.067Z,-0.98
2024-01-15T06:47:21.763Z,-0.98
2024-01-15T06:49:48.496Z,-1.00
2024-01-15T06:52:15.160Z,-1.01
2024-01-15T06:54:41.868Z,-0.99
2024-01-15T06:57:08.666Z,-0.98
2024-01-15T06:59:36.642Z,-0.99
2024-01-15T07:02:03.959Z,-1.01
2024-01-15T07:04:30.732Z,-1.00
2024-01-15T07:06:57.587Z,-0.99
2024-01-15T07:09:24.437Z,-0.99
2024-01-15T07:11:51.683Z,-0.97
2024-01-15T07:14:18.390Z,-0.97
2024-01-15T07:16:48.541Z,-0.98
2024-01-15T07:19:16.030Z,-0.98
2024-01-15T07:21:44.291Z,-0.98
2024-01-15T07:24:11.735Z,-0.99
2024-01-15T07:26:38.457Z,-1.02
2024-01-15T07:29:05.510Z,-1.00
2024-01-15T07:31:32.257Z,-1.03
2024-01-15T07:33:59.129Z,-1.08
2024-01-15T07:36:25.851Z,-1.08
2024-01-15T07:38:52.548Z,-1.11
2024-01-15T07:41:19.246Z,-1.15
2024-01-15T07:43:45.896Z,-1.14
2024-01-15T07:46:12.623Z,-1.16
2024-01-15T07:48:39.429Z,-1.18
2024-01-15T07:51:06.276Z,-1.17
2024-01-15T07:53:32.945Z,-1.17
2024-01-15T07:55:59.791Z,-1.15
2024-01-15T07:58:27.157Z,-1.15
2024-01-15T08:00:54.264Z,-1.11
2024-01-15T08:03:21.174Z,-1.11
2024-01-15T08:05:48.358Z,-1.10
2024-01-15T08:08:15.120Z,-1.10
2024-01-15T08:10:41.797Z,-1.04
2024-01-15T08:13:10.286Z,-1.03
2024-01-15T08:15:37.392Z,-1.00
2024-01-15T08:18:04.239Z,-1.03
2024-01-15T08:20:32.107Z,-1.04
2024-01-15T08:22:59.147Z,-1.01
2024-01-15T08:25:27.119Z,-1.06
2024-01-15T08:27:54.039Z,-1.11
2024-01-15T08:30:22.259Z,-1.10
2024-01-15T08:32:49.080Z,-1.10
2024-01-15T08:35:15.842Z,-1.10
2024-01-15T08:37:42.541Z,-1.06
2024-01-15T08:40:09.718Z,-1.03
2024-01-15T08:42:36.411Z,-1.04
2024-01-15T08:45:03.318Z,-1.06
2024-01-15T08:47:30.165Z,-1.03
2024-01-15T08:49:57.411Z,-1.02
2024-01-15T08:52:24.118Z,-1.04
2024-01-15T08:54:50.862Z,-1.03
2024-01-15T08:57:17.674Z,-0.99
2024-01-15T08:59:44.309Z,-0.95
2024-01-15T09:02:11.114Z,-0.92
2024-01-15T09:04:37.812Z,-0.91
2024-01-15T09:07:04.713Z,-0.96
2024-01-15T09:09:31.448Z,-1.01
2024-01-15T09:11:58.746Z,-0.97
2024-01-15T09:14:33.460Z,-0.83
2024-01-15T09:17:05.580Z,-0.80
2024-01-15T09:19:32.683Z,-0.74
2024-01-15T09:21:59.757Z,-0.73
2024-01-15T09:24:28.135Z,-0.72
2024-01-15T09:26:56.143Z,-0.73
2024-01-15T09:29:24.692Z,-0.75
2024-01-15T09:31:51.757Z,-0.81
2024-01-15T09:34:19.493Z,-0.69
2024-01-15T09:36:46.504Z,-0.52
2024-01-15T09:39:13.468Z,-0.38
2024-01-15T09:41:40.509Z,-0.27
2024-01-15T09:44:08.961Z,-0.21
2024-01-15T09:46:40.101Z,-0.19
2024-01-15T09:49:07.020Z,-0.20
2024-01-15T09:51:34.146Z,-0.18
2024-01-15T09:54:01.085Z,-0.13
2024-01-15T09:56:28.803Z,-0.02
2024-01-15T09:58:56.017Z,0.00
2024-01-15T10:01:23.845Z,0.06
2024-01-15T10:03:51.607Z,0.09
2024-01-15T10:06:22.501Z,0.03
2024-01-15T10:08:53.672Z,0.11
2024-01-15T10:11:20.361Z,0.14
2024-01-15T10:13:56.777Z,0.06
2024-01-15T10:16:24.664Z,0.09
2024-01-15T10:18:52.405Z,0.06
2024-01-15T10:21:19.170Z,0.20
2024-01-15T10:23:45.877Z,0.60
2024-01-15T10:26:19.197Z,0.72
2024-01-15T10:28:46.224Z,0.64
2024-01-15T10:31:13.265Z,0.55
2024-01-15T10:33:40.006Z,0.46
2024-01-15T10:36:11.581Z,0.26
2024-01-15T10:38:38.823Z,0.23
2024-01-15T10:41:05.748Z,0.23
2024-01-15T10:43:32.471Z,0.20
2024-01-15T10:45:59.640Z,0.22
2024-01-15T10:48:29.687Z,0.21
2024-01-15T10:50:57.196Z,0.00
2024-01-15T10:53:24.596Z,0.11
2024-01-15T10:55:52.612Z,0.14
2024-01-15T10:58:21.026Z,0.05
2024-01-15T11:00:48.067Z,0.02
2024-01-15T11:03:15.121Z,0.04
2024-01-15T11:05:45.523Z,0.02
2024-01-15T11:08:12.581Z,-0.05
2024-01-15T11:10:53.134Z,-0.06
2024-01-15T11:13:40.534Z,0.06
2024-01-15T11:16:09.172Z,0.12
2024-01-15T11:18:40.309Z,0.11
2024-01-15T11:21:08.690Z,0.12
2024-01-15T11:23:54.026Z,0.09
2024-01-15T11:26:45.257Z,0.07
2024-01-15T11:29:31.092Z,0.00
2024-01-15T11:32:08.310Z,0.05
2024-01-15T11:35:00.943Z,0.04
2024-01-15T11:37:29.315Z,0.15
2024-01-15T11:40:01.643Z,0.38
2024-01-15T11:42:29.053Z,0.58
2024-01-15T11:44:56.103Z,0.63
2024-01-15T11:47:57.660Z,0.57
2024-01-15T11:50:25.827Z,0.59
2024-01-15T11:53:06.956Z,0.64
2024-01-15T11:55:42.401Z,0.58
2024-01-15T11:58:11.038Z,0.64
2024-01-15T12:00:43.481Z,0.62
2024-01-15T12:03:11.129Z,0.58
2024-01-15T12:05:39.093Z,0.51
2024-01-15T12:08:12.255Z,0.55
2024-01-15T12:10:42.296Z,0.49
2024-01-15T12:13:16.117Z,0.46
2024-01-15T12:15:44.447Z,0.36
2024-01-15T12:18:14.070Z,0.40
2024-01-15T12:20:41.522Z,0.38
2024-01-15T12:23:09.115Z,0.39
2024-01-15T12:25:38.340Z,0.36
2024-01-15T12:28:05.609Z,0.28
2024-01-15T12:30:35.028Z,0.27
2024-01-15T12:33:06.131Z,0.28
2024-01-15T12:35:34.819Z,0.19
2024-01-15T12:38:05.923Z,0.17
2024-01-15T12:40:35.645Z,0.21
2024-01-15T12:43:03.183Z,0.24
2024-01-15T12:45:31.434Z,0.27
2024-01-15T12:47:59.025Z,0.31
2024-01-15T12:50:29.384Z,0.32
2024-01-15T12:52:56.139Z,0.34
2024-01-15T12:55:23.316Z,0.30
2024-01-15T12:57:53.647Z,0.27
2024-01-15T13:00:20.699Z,0.29
2024-01-15T13:02:47.578Z,0.34
2024-01-15T13:05:15.583Z,0.34
2024-01-15T13:07:44.515Z,0.25
2024-01-15T13:10:11.928Z,0.27
2024-01-15T13:12:39.738Z,0.24
2024-01-15T13:15:10.866Z,0.21
2024-01-15T13:17:38.030Z,0.20
2024-01-15T13:20:05.286Z,0.25
2024-01-15T13:22:33.970Z,0.26
2024-01-15T13:25:01.425Z,0.20
2024-01-15T13:27:28.926Z,0.25
2024-01-15T13:29:56.069Z,0.24
2024-01-15T13:32:28.619Z,0.20
2024-01-15T13:34:58.656Z,0.18
2024-01-15T13:37:25.810Z,0.15
2024-01-15T13:39:53.810Z,0.07
2024-01-15T13:42:23.416Z,0.16
2024-01-15T13:44:50.394Z,0.09
2024-01-15T13:47:17.196Z,0.07
2024-01-15T13:49:43.856Z,0.07
2024-01-15T13:52:10.582Z,0.02
2024-01-15T13:54:45.259Z,-0.13
2024-01-15T13:57:19.134Z,-0.19
2024-01-15T13:59:46.560Z,-0.22
2024-01-15T14:02:14.999Z,-0.29
2024-01-15T14:04:42.930Z,-0.46
2024-01-15T14:07:09.642Z,-0.62
2024-01-15T14:09:36.426Z,-0.65
2024-01-15T14:12:03.748Z,-0.75
2024-01-15T14:14:30.621Z,-0.66
2024-01-15T14:16:57.920Z,-0.68
2024-01-15T14:19:24.747Z,-0.72
2024-01-15T14:21:51.685Z,-0.69
2024-01-15T14:24:19.016Z,-0.72
2024-01-15T14:26:45.831Z,-0.81
2024-01-15T14:29:12.559Z,-0.85
2024-01-15T14:31:40.609Z,-0.92
2024-01-15T14:34:08.996Z,-0.95
2024-01-15T14:36:36.156Z,-0.94
2024-01-15T14:39:03.134Z,-0.95
2024-01-15T14:41:30.684Z,-0.94
2024-01-15T14:43:58.508Z,-0.97
2024-01-15T14:46:25.301Z,-0.98
2024-01-15T14:48:52.047Z,-0.97
2024-01-15T14:51:18.873Z,-1.01
2024-01-15T14:53:45.643Z,-1.10
2024-01-15T14:56:14.629Z,-1.24
2024-01-15T14:58:42.671Z,-1.30
2024-01-15T15:01:09.445Z,-1.36
2024-01-15T15:03:36.443Z,-1.41
2024-01-15T15:06:03.405Z,-1.46
2024-01-15T15:08:30.492Z,-1.45
2024-01-15T15:10:57.949Z,-1.42
2024-01-15T15:13:34.086Z,-1.47
2024-01-15T15:16:09.000Z,-1.38
2024-01-15T15:18:36.067Z,-1.43
2024-01-15T15:21:03.445Z,-1.45
2024-01-15T15:23:30.266Z,-1.43
2024-01-15T15:25:56.977Z,-1.48
2024-01-15T15:28:23.686Z,-1.47
2024-01-15T15:30:50.519Z,-1.51
2024-01-15T15:33:17.350Z,-1.49
2024-01-15T15:35:44.201Z,-1.47
2024-01-15T15:38:10.911Z,-1.41
2024-01-15T15:40:37.533Z,-1.37
2024-01-15T15:43:04.411Z,-1.36
2024-01-15T15:45:31.068Z,-1.33
2024-01-15T15:47:57.911Z,-1.33
2024-01-15T15:50:24.846Z,-1.38
2024-01-15T15:52:52.113Z,-1.38
2024-01-15T15:55:18.855Z,-1.41
2024-01-15T15:57:45.596Z,-1.41
2024-01-15T16:00:12.949Z,-1.37
2024-01-15T16:02:39.655Z,-1.34
2024-01-15T16:05:11.226Z,-1.35
2024-01-15T16:07:38.351Z,-1.35
2024-01-15T16:10:05.659Z,-1.26
2024-01-15T16:12:32.481Z,-1.25
2024-01-15T16:15:01.936Z,-1.23
2024-01-15T16:23:15.887Z,-1.15
2024-01-15T16:23:29.820Z,-1.11
2024-01-15T16:23:54.160Z,-1.06
2024-01-15T16:25:51.896Z,-0.95
2024-01-15T16:28:19.073Z,-0.92
2024-01-15T16:30:47.960Z,-0.87
2024-01-15T16:33:14.972Z,-0.89
2024-01-15T16:35:41.773Z,-0.86
2024-01-15T16:38:08.698Z,-0.90
2024-01-15T16:40:36.285Z,-0.89
2024-01-15T16:43:04.505Z,-0.91
2024-01-15T16:45:31.263Z,-0.94
2024-01-15T16:47:57.999Z,-0.93
2024-01-15T16:50:24.705Z,-0.93
2024-01-15T16:52:51.521Z,-0.92
2024-01-15T16:55:18.430Z,-0.92
2024-01-15T16:57:45.137Z,-0.91
2024-01-15T17:00:12.233Z,-0.90
2024-01-15T17:02:39.215Z,-0.88
2024-01-15T17:05:06.347Z,-0.93
2024-01-15T17:07:33.113Z,-0.96
2024-01-15T17:10:00.320Z,-0.95
2024-01-15T17:12:27.476Z,-1.00
2024-01-15T17:14:54.073Z,-1.04
2024-01-15T17:17:22.732Z,-1.08
2024-01-15T17:19:50.162Z,-1.07
2024-01-15T17:22:16.836Z,-1.12
2024-01-15T17:24:43.550Z,-1.16
2024-01-15T17:27:10.243Z,-1.14
2024-01-15T17:29:37.066Z,-1.15
2024-01-15T17:32:04.106Z,-1.18
2024-01-15T17:34:30.883Z,-1.17
2024-01-15T17:36:57.778Z,-1.14
2024-01-15T17:39:24.392Z,-1.12
2024-01-15T17:41:51.200Z,-1.07
2024-01-15T17:44:18.039Z,-1.01
2024-01-15T17:46:45.040Z,-0.98
2024-01-15T17:49:11.716Z,-0.93
2024-01-15T17:51:38.406Z,-0.90
2024-01-15T17:54:09.849Z,-0.86
2024-01-15T17:56:36.921Z,-0.87
2024-01-15T17:59:04.112Z,-0.86
2024-01-15T18:01:32.583Z,-0.91
2024-01-15T18:04:04.270Z,-0.95
2024-01-15T18:06:32.235Z,-1.00
2024-01-15T18:08:59.163Z,-1.07
2024-01-15T18:11:25.880Z,-1.12
2024-01-15T18:13:52.623Z,-1.16
2024-01-15T18:16:23.763Z,-1.16
2024-01-15T18:18:52.313Z,-1.19
2024-01-15T18:21:20.550Z,-1.20
2024-01-15T18:23:47.964Z,-1.21
2024-01-15T18:26:16.314Z,-1.18
2024-01-15T18:28:43.094Z,-1.19
2024-01-15T18:31:09.878Z,-1.21
2024-01-15T18:33:37.437Z,-1.23
2024-01-15T18:36:04.949Z,-1.21
2024-01-15T18:38:32.035Z,-1.23
2024-01-15T18:41:00.493Z,-1.20
2024-01-15T18:43:31.941Z,-1.18
2024-01-15T18:45:59.205Z,-1.19
2024-01-15T18:48:25.933Z,-1.18
2024-01-15T18:50:52.833Z,-1.24
2024-01-15T18:53:19.546Z,-1.27
2024-01-15T18:55:46.337Z,-1.30
2024-01-15T18:58:13.120Z,-1.33
2024-01-15T19:00:39.874Z,-1.41
2024-01-15T19:03:06.887Z,-1.44
2024-01-15T19:05:33.695Z,-1.45
2024-01-15T19:08:00.716Z,-1.46
2024-01-15T19:10:27.660Z,-1.44
2024-01-15T19:12:54.357Z,-1.47
2024-01-15T19:15:21.359Z,-1.46
2024-01-15T19:17:50.010Z,-1.44
2024-01-15T19:20:17.086Z,-1.40
2024-01-15T19:22:43.821Z,-1.42
2024-01-15T19:25:12.743Z,-1.43
2024-01-15T19:27:44.355Z,-1.45
2024-01-15T19:30:17.480Z,-1.48
2024-01-15T19:32:44.905Z,-1.52
2024-01-15T19:35:11.847Z,-1.48
2024-01-15T19:37:38.978Z,-1.51
2024-01-15T19:40:07.652Z,-1.55
2024-01-15T19:42:34.393Z,-1.59
2024-01-15T19:45:01.049Z,-1.56
2024-01-15T19:47:28.900Z,-1.57
2024-01-15T19:49:55.660Z,-1.61
2024-01-15T19:52:22.530Z,-1.61
2024-01-15T19:54:49.190Z,-1.58
2024-01-15T19:57:15.868Z,-1.57
2024-01-15T19:59:42.570Z,-1.57
2024-01-15T20:02:09.394Z,-1.59
2024-01-15T20:04:36.056Z,-1.59
2024-01-15T20:07:03.249Z,-1.56
2024-01-15T20:09:30.084Z,-1.55
2024-01-15T20:11:56.723Z,-1.50
2024-01-15T20:14:25.846Z,-1.47
2024-01-15T20:16:52.619Z,-1.47
2024-01-15T20:19:19.518Z,-1.50
2024-01-15T20:21:46.420Z,-1.50
2024-01-15T20:24:13.954Z,-1.51
2024-01-15T20:26:40.731Z,-1.45
2024-01-15T20:29:10.112Z,-1.44
2024-01-15T20:31:37.314Z,-1.40
2024-01-15T20:34:04.144Z,-1.35
2024-01-15T20:36:30.970Z,-1.34
2024-01-15T20:38:57.760Z,-1.37
2024-01-15T20:41:25.895Z,-1.33
2024-01-15T20:43:52.632Z,-1.34
2024-01-15T20:46:19.493Z,-1.34
2024-01-15T20:48:46.312Z,-1.31
2024-01-15T20:51:13.150Z,-1.29
2024-01-15T20:53:43.532Z,-1.26
2024-01-15T20:56:10.629Z,-1.29
2024-01-15T20:58:37.710Z,-1.29
2024-01-15T21:01:08.476Z,-1.30
2024-01-15T21:03:36.227Z,-1.31
2024-01-15T21:06:03.285Z,-1.30
2024-01-15T21:08:31.472Z,-1.31
2024-01-15T21:10:58.151Z,-1.33
2024-01-15T21:13:24.807Z,-1.37
2024-01-15T21:15:51.595Z,-1.45
2024-01-15T21:18:18.585Z,-1.48
2024-01-15T21:20:45.588Z,-1.51
2024-01-15T21:23:12.577Z,-1.51
2024-01-15T21:25:39.691Z,-1.50
2024-01-15T21:28:08.008Z,-1.49
2024-01-15T21:30:36.523Z,-1.44
2024-01-15T21:33:08.812Z,-1.39
2024-01-15T21:35:35.699Z,-1.33
2024-01-15T21:38:02.564Z,-1.31
2024-01-15T21:40:29.603Z,-1.28
2024-01-15T21:42:57.088Z,-1.20
2024-01-15T21:45:23.784Z,-1.13
2024-01-15T21:47:50.586Z,-1.11
2024-01-15T21:50:17.387Z,-1.12
2024-01-15T21:52:44.091Z,-1.09
2024-01-15T21:55:11.145Z,-1.05
2024-01-15T21:57:37.932Z,-1.06
2024-01-15T22:00:07.576Z,-1.03
2024-01-15T22:02:41.340Z,-1.02
2024-01-15T22:05:10.996Z,-0.99
2024-01-15T22:07:41.596Z,-0.98
2024-01-15T22:10:08.946Z,-0.95
2024-01-15T22:12:35.798Z,-0.94
2024-01-15T22:15:02.578Z,-0.95
2024-01-15T22:17:30.035Z,-0.97
2024-01-15T22:19:56.899Z,-0.92
2024-01-15T22:22:23.628Z,-0.89
2024-01-15T22:24:50.351Z,-0.90
2024-01-15T22:27:17.094Z,-0.92
2024-01-15T22:29:43.844Z,-0.94
2024-01-15T22:32:10.810Z,-0.94
2024-01-15T22:34:37.560Z,-0.95
2024-01-15T22:37:05.753Z,-0.96
2024-01-15T22:39:32.502Z,-1.02
2024-01-15T22:42:00.148Z,-1.07
2024-01-15T22:44:27.242Z,-1.21
2024-01-15T22:46:54.051Z,-1.29
2024-01-15T22:49:20.984Z,-1.32
2024-01-15T22:51:47.816Z,-1.31
2024-01-15T22:54:14.565Z,-1.27
2024-01-15T22:56:41.321Z,-1.31
2024-01-15T22:59:08.167Z,-1.34
2024-01-15T23:01:34.855Z,-1.33
2024-01-15T23:04:01.588Z,-1.35
2024-01-15T23:06:28.637Z,-1.41
2024-01-15T23:08:56.578Z,-1.44
2024-01-15T23:11:24.404Z,-1.43
2024-01-15T23:13:51.405Z,-1.47
2024-01-15T23:16:18.005Z,-1.49
2024-01-15T23:18:45.484Z,-1.50
2024-01-15T23:21:12.379Z,-1.48
2024-01-15T23:23:39.351Z,-1.47
2024-01-15T23:26:06.572Z,-1.45
2024-01-15T23:28:33.652Z,-1.41
2024-01-15T23:31:02.063Z,-1.43
2024-01-15T23:33:29.466Z,-1.44
2024-01-15T23:35:57.440Z,-1.45
2024-01-15T23:38:24.528Z,-1.45
2024-01-15T23:40:51.789Z,-1.46
2024-01-15T23:43:18.800Z,-1.43
2024-01-15T23:45:47.825Z,-1.45
2024-01-15T23:48:15.869Z,-1.43
2024-01-15T23:50:42.834Z,-1.46
2024-01-15T23:53:09.958Z,-1.48
2024-01-15T23:55:36.695Z,-1.50
2024-01-15T23:58:04.364Z,-1.52
